createdAt,value
2017-06-28T00:00:45.937Z,17.17
2017-06-28T00:03:13.453Z,18.27
2017-06-28T00:05:40.936Z,15.13
2017-06-28T00:08:08.431Z,16.30
2017-06-28T00:10:35.965Z,16.27
2017-06-28T00:13:03.496Z,15.83
2017-06-28T00:15:31.044Z,20.70
2017-06-28T00:17:58.565Z,15.90
2017-06-28T00:20:26.848Z,17.60
2017-06-28T00:22:54.332Z,17.40
2017-06-28T00:25:21.932Z,15.70
2017-06-28T00:27:49.476Z,17.60
2017-06-28T00:30:17.020Z,25.97
2017-06-28T00:32:44.764Z,17.50
2017-06-28T00:35:12.312Z,20.10
2017-06-28T00:37:39.808Z,16.90
2017-06-28T00:40:07.375Z,16.60
2017-06-28T00:42:35.643Z,16.30
2017-06-28T00:45:03.932Z,20.70
2017-06-28T00:47:31.488Z,20.43
2017-06-28T00:49:59.016Z,16.93
2017-06-28T00:52:26.499Z,25.27
2017-06-28T00:54:54.196Z,18.43
2017-06-28T00:57:21.739Z,20.43
2017-06-28T00:59:49.276Z,22.10
2017-06-28T01:02:17.544Z,21.70
2017-06-28T01:04:45.023Z,18.23
2017-06-28T01:07:12.524Z,18.60
2017-06-28T01:09:40.277Z,18.37
2017-06-28T01:12:07.783Z,20.10
2017-06-28T01:14:35.280Z,18.87
2017-06-28T01:17:02.953Z,20.30
2017-06-28T01:19:30.451Z,22.10
2017-06-28T01:21:57.994Z,22.03
2017-06-28T01:24:25.508Z,19.13
2017-06-28T01:26:53.085Z,21.33
2017-06-28T01:29:20.598Z,22.97
2017-06-28T01:31:48.098Z,23.73
2017-06-28T01:34:15.609Z,21.77
2017-06-28T01:36:43.153Z,21.90
2017-06-28T01:39:10.696Z,21.27
2017-06-28T01:41:38.192Z,20.90
2017-06-28T01:44:05.684Z,24.63
2017-06-28T01:46:33.199Z,23.23
2017-06-28T01:49:00.769Z,22.77
2017-06-28T01:51:28.290Z,20.73
2017-06-28T01:53:56.573Z,22.60
2017-06-28T01:56:24.111Z,24.27
2017-06-28T01:58:51.661Z,22.27
2017-06-28T02:01:19.144Z,22.77
2017-06-28T02:03:46.641Z,22.80
2017-06-28T02:06:14.188Z,26.80
2017-06-28T02:08:41.668Z,23.00
2017-06-28T02:11:09.157Z,24.73
2017-06-28T02:13:36.689Z,23.00
2017-06-28T02:16:04.954Z,23.53
2017-06-28T02:18:33.237Z,22.73
2017-06-28T02:21:00.784Z,23.10
2017-06-28T02:23:28.269Z,33.70
2017-06-28T02:25:55.764Z,23.73
2017-06-28T02:28:23.306Z,24.27
2017-06-28T02:30:50.848Z,25.30
2017-06-28T02:33:18.392Z,24.80
2017-06-28T02:35:45.880Z,24.33
2017-06-28T02:38:13.397Z,26.60
2017-06-28T02:40:40.930Z,24.90
2017-06-28T02:43:08.420Z,26.10
2017-06-28T02:45:35.965Z,26.03
2017-06-28T02:48:03.456Z,25.77
2017-06-28T02:50:30.935Z,23.40
2017-06-28T02:52:58.633Z,25.67
2017-06-28T02:55:26.185Z,26.63
2017-06-28T02:57:53.684Z,26.53
2017-06-28T03:00:21.164Z,25.53
2017-06-28T03:02:48.639Z,28.10
2017-06-28T03:05:16.164Z,25.47
2017-06-28T03:07:43.640Z,27.00
2017-06-28T03:10:11.148Z,24.30
2017-06-28T03:12:38.888Z,24.77
2017-06-28T03:15:06.382Z,25.37
2017-06-28T03:17:33.889Z,26.53
2017-06-28T03:20:01.416Z,24.43
2017-06-28T03:22:28.963Z,26.80
2017-06-28T03:24:56.444Z,26.73
2017-06-28T03:27:24.144Z,26.17
2017-06-28T03:29:51.692Z,23.20
2017-06-28T03:32:19.168Z,24.20
2017-06-28T03:34:46.864Z,23.03
2017-06-28T03:37:15.140Z,24.80
2017-06-28T03:39:42.620Z,23.40
2017-06-28T03:42:10.120Z,22.43
2017-06-28T03:44:37.600Z,24.37
2017-06-28T03:47:05.317Z,23.43
2017-06-28T03:49:32.805Z,26.07
2017-06-28T03:52:00.288Z,24.20
2017-06-28T03:54:28.765Z,24.40
2017-06-28T03:56:56.240Z,22.80
2017-06-28T03:59:23.775Z,25.47
2017-06-28T04:01:51.492Z,22.87
2017-06-28T04:04:19.037Z,26.07
2017-06-28T04:06:46.613Z,24.60
2017-06-28T04:09:14.225Z,23.70
2017-06-28T04:11:41.768Z,22.87
2017-06-28T04:14:09.261Z,23.60
2017-06-28T04:16:36.780Z,22.10
2017-06-28T04:19:04.282Z,26.40
2017-06-28T04:21:32.633Z,24.20
2017-06-28T04:24:00.152Z,23.63
2017-06-28T04:26:27.644Z,22.13
2017-06-28T04:28:55.190Z,23.33
2017-06-28T04:31:22.937Z,23.00
2017-06-28T04:33:50.480Z,22.60
2017-06-28T04:36:18.030Z,22.67
2017-06-28T04:38:45.772Z,24.53
2017-06-28T04:41:13.318Z,22.03
2017-06-28T04:43:40.880Z,22.47
2017-06-28T04:46:08.405Z,23.37
2017-06-28T04:48:35.958Z,21.07
2017-06-28T04:51:03.498Z,20.20
2017-06-28T04:53:30.975Z,20.30
2017-06-28T04:55:58.448Z,25.40
2017-06-28T04:58:26.017Z,20.30
2017-06-28T05:00:53.568Z,25.00
2017-06-28T05:03:21.053Z,22.03
2017-06-28T05:05:48.532Z,23.70
2017-06-28T05:08:16.895Z,22.40
2017-06-28T05:10:45.144Z,20.40
2017-06-28T05:13:12.632Z,21.07
2017-06-28T05:15:40.163Z,21.63
2017-06-28T05:18:07.668Z,22.43
2017-06-28T05:20:35.152Z,21.13
2017-06-28T05:23:02.684Z,21.83
2017-06-28T05:25:30.224Z,20.27
2017-06-28T05:27:57.773Z,21.03
2017-06-28T05:30:25.287Z,22.43
2017-06-28T05:32:53.540Z,21.13
2017-06-28T05:35:21.016Z,25.23
2017-06-28T05:37:48.555Z,21.90
2017-06-28T05:40:16.032Z,21.37
2017-06-28T05:42:43.745Z,22.03
2017-06-28T05:45:11.232Z,21.40
2017-06-28T05:47:38.727Z,21.33
2017-06-28T05:50:06.481Z,21.67
2017-06-28T05:52:33.981Z,21.87
2017-06-28T05:55:01.464Z,22.80
2017-06-28T05:57:28.985Z,20.87
2017-06-28T05:59:57.231Z,23.80
2017-06-28T06:02:24.811Z,23.43
2017-06-28T06:04:52.356Z,21.80
2017-06-28T06:07:19.900Z,23.63
2017-06-28T06:09:47.440Z,21.53
2017-06-28T06:12:14.984Z,21.87
2017-06-28T06:14:42.529Z,20.37
2017-06-28T06:17:10.058Z,20.10
2017-06-28T06:19:38.330Z,20.10
2017-06-28T06:22:05.883Z,19.40
2017-06-28T06:24:33.437Z,18.30
2017-06-28T06:27:00.960Z,25.47
2017-06-28T06:29:28.505Z,20.23
2017-06-28T06:31:56.048Z,21.73
2017-06-28T06:34:23.588Z,24.23
2017-06-28T06:36:51.140Z,26.43
2017-06-28T06:39:18.681Z,27.43
2017-06-28T06:41:46.220Z,21.80
2017-06-28T06:44:13.766Z,21.83
2017-06-28T06:46:41.284Z,25.83
2017-06-28T06:49:09.529Z,24.67
2017-06-28T06:51:37.033Z,22.43
2017-06-28T06:54:04.533Z,23.33
2017-06-28T06:56:32.812Z,21.97
2017-06-28T06:59:00.359Z,21.73
2017-06-28T07:01:27.839Z,22.47
2017-06-28T07:03:55.352Z,22.20
2017-06-28T07:06:22.884Z,19.40
2017-06-28T07:08:50.365Z,22.13
2017-06-28T07:11:17.897Z,19.87
2017-06-28T07:13:45.372Z,21.13
2017-06-28T07:16:12.956Z,23.27
2017-06-28T07:18:40.451Z,22.23
2017-06-28T07:21:07.948Z,21.80
2017-06-28T07:23:35.487Z,21.70
2017-06-28T07:26:03.452Z,19.73
2017-06-28T07:28:30.933Z,19.33
2017-06-28T07:30:58.422Z,20.27
2017-06-28T07:33:25.936Z,24.20
2017-06-28T07:35:53.416Z,17.63
2017-06-28T07:38:20.952Z,16.20
2017-06-28T07:40:48.497Z,18.70
2017-06-28T07:43:15.976Z,16.77
2017-06-28T07:45:43.465Z,16.53
2017-06-28T07:48:11.712Z,17.00
2017-06-28T07:50:39.212Z,14.50
2017-06-28T07:53:06.712Z,15.47
2017-06-28T07:55:34.992Z,15.23
2017-06-28T07:58:02.496Z,13.93
2017-06-28T08:00:30.063Z,15.40
2017-06-28T08:02:58.307Z,13.13
2017-06-28T08:05:26.559Z,13.57
2017-06-28T08:07:54.141Z,15.43
2017-06-28T08:10:21.672Z,15.03
2017-06-28T08:12:50.039Z,16.23
2017-06-28T08:15:17.580Z,16.70
2017-06-28T08:17:45.056Z,15.63
2017-06-28T08:20:12.548Z,15.57
2017-06-28T08:22:40.809Z,14.60
2017-06-28T08:25:09.321Z,15.87
2017-06-28T08:27:36.804Z,17.63
2017-06-28T08:30:04.307Z,16.27
2017-06-28T08:32:31.829Z,16.33
2017-06-28T08:34:59.476Z,16.13
2017-06-28T08:37:26.964Z,13.27
2017-06-28T08:39:54.440Z,14.27
2017-06-28T08:42:22.700Z,13.70
2017-06-28T08:44:50.972Z,14.60
2017-06-28T08:47:18.516Z,13.43
2017-06-28T08:49:46.059Z,12.93
2017-06-28T08:52:13.605Z,13.00
2017-06-28T08:54:41.151Z,12.63
2017-06-28T08:57:08.646Z,13.50
2017-06-28T08:59:36.145Z,13.03
2017-06-28T09:02:03.671Z,12.53
2017-06-28T09:04:31.949Z,12.70
2017-06-28T09:06:59.431Z,12.73
2017-06-28T09:09:26.922Z,12.90
2017-06-28T09:11:54.464Z,13.50
2017-06-28T09:14:22.005Z,12.40
2017-06-28T09:16:49.552Z,12.67
2017-06-28T09:19:17.028Z,12.33
2017-06-28T09:21:44.560Z,13.43
2017-06-28T09:24:12.076Z,11.53
2017-06-28T09:26:39.637Z,12.33
2017-06-28T09:29:07.279Z,11.10
2017-06-28T09:31:34.768Z,12.10
2017-06-28T09:34:02.357Z,12.13
2017-06-28T09:36:29.895Z,12.17
2017-06-28T09:38:57.440Z,14.73
2017-06-28T09:41:24.985Z,12.10
2017-06-28T09:43:52.500Z,12.27
2017-06-28T09:46:20.078Z,11.87
2017-06-28T09:48:47.612Z,9.43
2017-06-28T09:51:15.104Z,10.67
2017-06-28T09:53:42.580Z,10.70
2017-06-28T09:56:10.860Z,12.20
2017-06-28T09:58:38.344Z,9.60
2017-06-28T10:01:05.844Z,9.43
2017-06-28T10:03:33.417Z,9.10
2017-06-28T10:06:00.931Z,9.07
2017-06-28T10:08:28.485Z,10.10
2017-06-28T10:10:56.225Z,9.13
2017-06-28T10:13:23.773Z,10.27
2017-06-28T10:15:51.244Z,9.17
2017-06-28T10:18:18.749Z,9.40
2017-06-28T10:20:46.312Z,9.73
2017-06-28T10:23:13.837Z,10.03
2017-06-28T10:25:41.325Z,9.47
2017-06-28T10:28:08.850Z,10.53
2017-06-28T10:30:36.341Z,11.13
2017-06-28T10:33:03.821Z,9.37
2017-06-28T10:35:31.352Z,10.20
2017-06-28T10:37:58.833Z,12.70
2017-06-28T10:40:26.346Z,11.70
2017-06-28T10:42:53.870Z,11.33
2017-06-28T10:45:22.147Z,11.47
2017-06-28T10:47:49.680Z,12.00
2017-06-28T10:50:17.260Z,11.93
2017-06-28T10:52:44.771Z,12.47
2017-06-28T10:55:12.316Z,13.03
2017-06-28T10:57:39.847Z,13.17
2017-06-28T11:00:08.120Z,12.53
2017-06-28T11:02:35.627Z,15.67
2017-06-28T11:05:03.182Z,13.37
2017-06-28T11:07:31.428Z,11.30
2017-06-28T11:09:58.916Z,12.10
2017-06-28T11:12:26.457Z,10.07
2017-06-28T11:14:53.990Z,11.23
2017-06-28T11:17:21.472Z,12.57
2017-06-28T11:19:48.995Z,13.63
2017-06-28T11:22:16.538Z,12.47
2017-06-28T11:24:44.021Z,11.80
2017-06-28T11:27:11.707Z,12.23
2017-06-28T11:29:39.190Z,11.70
2017-06-28T11:32:06.676Z,12.70
2017-06-28T11:34:35.121Z,12.30
2017-06-28T11:37:02.862Z,11.40
2017-06-28T11:39:30.351Z,13.00
2017-06-28T11:41:57.895Z,11.07
2017-06-28T11:44:25.436Z,11.33
2017-06-28T11:46:52.976Z,13.07
2017-06-28T11:49:20.521Z,10.57
2017-06-28T11:51:48.093Z,12.40
2017-06-28T11:54:15.578Z,9.97
2017-06-28T11:56:43.077Z,9.50
2017-06-28T11:59:10.597Z,14.07
2017-06-28T12:01:38.131Z,9.40
2017-06-28T12:04:05.613Z,8.37
2017-06-28T12:06:33.129Z,11.60
2017-06-28T12:09:00.664Z,8.30
2017-06-28T12:11:28.209Z,8.80
2017-06-28T12:13:55.857Z,9.23
2017-06-28T12:16:23.335Z,12.30
2017-06-28T12:18:50.940Z,10.00
2017-06-28T12:21:18.428Z,10.63
2017-06-28T12:23:45.923Z,10.43
2017-06-28T12:26:13.463Z,10.90
2017-06-28T12:28:40.947Z,16.00
2017-06-28T12:31:08.770Z,12.20
2017-06-28T12:33:36.268Z,15.53
2017-06-28T12:36:04.770Z,13.43
2017-06-28T12:38:32.298Z,13.00
2017-06-28T12:41:00.579Z,12.90
2017-06-28T12:43:28.056Z,14.23
2017-06-28T12:45:55.560Z,14.87
2017-06-28T12:48:23.257Z,13.90
2017-06-28T12:50:50.849Z,18.10
2017-06-28T12:53:18.397Z,14.60
2017-06-28T12:55:45.937Z,19.20
2017-06-28T12:58:13.479Z,17.30
2017-06-28T13:00:41.033Z,15.97
2017-06-28T13:03:08.524Z,20.97
2017-06-28T13:05:36.043Z,16.97
2017-06-28T13:08:03.572Z,19.97
2017-06-28T13:10:31.053Z,15.33
2017-06-28T13:12:58.740Z,14.53
2017-06-28T13:15:26.290Z,13.37
2017-06-28T13:17:53.828Z,12.17
2017-06-28T13:20:21.320Z,11.87
2017-06-28T13:22:48.802Z,11.83
2017-06-28T13:25:17.275Z,11.30
2017-06-28T13:27:44.752Z,12.80
2017-06-28T13:30:12.262Z,12.47
2017-06-28T13:32:39.787Z,12.60
2017-06-28T13:35:08.094Z,10.17
2017-06-28T13:37:35.577Z,10.70
2017-06-28T13:40:03.081Z,10.27
2017-06-28T13:42:30.622Z,9.90
2017-06-28T13:44:58.137Z,9.13
2017-06-28T13:47:25.676Z,9.77
2017-06-28T13:49:53.192Z,8.03
2017-06-28T13:52:20.660Z,8.97
2017-06-28T13:54:48.136Z,8.60
2017-06-28T13:57:15.745Z,9.00
2017-06-28T13:59:44.009Z,8.60
2017-06-28T14:02:11.484Z,8.30
2017-06-28T14:04:39.100Z,8.90
2017-06-28T14:07:06.749Z,8.47
2017-06-28T14:09:34.241Z,7.73
2017-06-28T14:12:01.938Z,10.40
2017-06-28T14:14:29.477Z,7.20
2017-06-28T14:16:56.948Z,7.40
2017-06-28T14:19:24.669Z,7.17
2017-06-28T14:21:52.208Z,8.00
2017-06-28T14:24:19.748Z,7.50
2017-06-28T14:26:48.112Z,7.90
2017-06-28T14:29:16.352Z,8.27
2017-06-28T14:31:44.589Z,9.03
2017-06-28T14:34:12.176Z,9.17
2017-06-28T14:36:39.657Z,8.87
2017-06-28T14:39:08.115Z,10.13
2017-06-28T14:41:35.836Z,9.47
2017-06-28T14:44:03.321Z,11.33
2017-06-28T14:46:30.824Z,9.13
2017-06-28T14:48:58.328Z,11.03
2017-06-28T14:51:26.619Z,10.53
2017-06-28T14:53:54.093Z,6.00
2017-06-28T14:56:21.609Z,7.13
2017-06-28T14:58:49.149Z,6.67
2017-06-28T15:01:16.688Z,9.80
2017-06-28T15:03:44.959Z,7.00
2017-06-28T15:06:12.501Z,6.27
2017-06-28T15:08:40.062Z,6.87
2017-06-28T15:11:07.550Z,7.97
2017-06-28T15:13:35.035Z,7.63
2017-06-28T15:16:02.581Z,6.53
2017-06-28T15:18:30.065Z,7.80
2017-06-28T15:20:57.536Z,7.07
2017-06-28T15:23:25.816Z,9.10
2017-06-28T15:25:53.292Z,7.60
2017-06-28T15:28:20.795Z,13.20
2017-06-28T15:30:48.269Z,8.17
2017-06-28T15:33:15.783Z,7.77
2017-06-28T15:35:43.330Z,12.90
2017-06-28T15:38:10.815Z,10.57
2017-06-28T15:40:38.308Z,11.00
2017-06-28T15:43:05.862Z,11.10
2017-06-28T15:45:33.393Z,13.07
2017-06-28T15:48:00.881Z,13.40
2017-06-28T15:50:28.525Z,14.17
2017-06-28T15:52:56.046Z,12.80
2017-06-28T15:55:23.576Z,11.20
2017-06-28T15:57:51.097Z,12.30
2017-06-28T16:00:19.376Z,9.67
2017-06-28T16:02:46.916Z,10.93
2017-06-28T16:05:14.400Z,9.67
2017-06-28T16:07:41.908Z,10.10
2017-06-28T16:10:09.462Z,9.53
2017-06-28T16:12:36.977Z,9.10
2017-06-28T16:15:05.260Z,8.87
2017-06-28T16:23:33.725Z,7.73
2017-06-28T16:26:01.197Z,6.60
2017-06-28T16:28:28.705Z,7.40
2017-06-28T16:30:56.244Z,8.80
2017-06-28T16:33:23.793Z,8.63
2017-06-28T16:35:51.338Z,8.70
2017-06-28T16:38:18.841Z,8.60
2017-06-28T16:40:46.425Z,9.10
2017-06-28T16:43:13.968Z,9.90
2017-06-28T16:45:41.468Z,11.67
2017-06-28T16:48:09.066Z,11.17
2017-06-28T16:50:36.624Z,12.57
2017-06-28T16:53:04.131Z,13.90
2017-06-28T16:55:31.638Z,11.87
2017-06-28T16:57:59.224Z,12.30
2017-06-28T17:00:26.705Z,14.30
2017-06-28T17:02:54.221Z,13.13
2017-06-28T17:05:21.757Z,14.60
2017-06-28T17:07:49.296Z,12.37
2017-06-28T17:10:17.313Z,12.40
2017-06-28T17:12:44.955Z,15.80
2017-06-28T17:15:12.452Z,13.20
2017-06-28T17:17:40.008Z,14.03
2017-06-28T17:20:07.529Z,15.20
2017-06-28T17:22:35.061Z,17.40
2017-06-28T17:25:02.733Z,15.87
2017-06-28T17:27:30.228Z,16.97
2017-06-28T17:29:57.793Z,16.50
2017-06-28T17:32:26.068Z,16.73
2017-06-28T17:34:53.576Z,17.33
2017-06-28T17:37:21.869Z,24.07
2017-06-28T17:39:49.411Z,17.30
2017-06-28T17:42:16.888Z,17.57
2017-06-28T17:44:44.396Z,17.10
2017-06-28T17:47:11.936Z,18.90
2017-06-28T17:49:39.419Z,18.90
2017-06-28T17:52:07.009Z,17.77
2017-06-28T17:54:34.545Z,19.47
2017-06-28T17:57:02.825Z,17.70
2017-06-28T17:59:30.571Z,19.93
2017-06-28T18:01:58.819Z,20.03
2017-06-28T18:04:27.323Z,19.80
2017-06-28T18:06:54.936Z,19.70
2017-06-28T18:09:23.318Z,19.67
2017-06-28T18:11:50.799Z,21.83
2017-06-28T18:14:18.276Z,20.77
2017-06-28T18:16:46.568Z,21.07
2017-06-28T18:19:14.069Z,23.30
2017-06-28T18:21:41.554Z,20.40
2017-06-28T18:24:09.953Z,23.63
2017-06-28T18:26:37.456Z,23.00
2017-06-28T18:29:04.960Z,23.00
2017-06-28T18:31:32.652Z,20.73
2017-06-28T18:34:01.288Z,20.60
2017-06-28T18:36:29.583Z,23.23
2017-06-28T18:38:57.108Z,21.00
2017-06-28T18:41:24.661Z,24.23
2017-06-28T18:43:52.403Z,27.13
2017-06-28T18:46:19.884Z,24.33
2017-06-28T18:48:47.384Z,23.77
2017-06-28T18:51:15.144Z,24.90
2017-06-28T18:53:42.620Z,24.63
2017-06-28T18:56:10.109Z,25.17
2017-06-28T18:58:37.623Z,25.57
2017-06-28T19:01:05.111Z,25.10
2017-06-28T19:03:32.744Z,26.40
2017-06-28T19:06:00.248Z,28.87
2017-06-28T19:08:27.729Z,26.30
2017-06-28T19:10:55.977Z,24.83
2017-06-28T19:13:24.248Z,28.43
2017-06-28T19:15:52.512Z,27.60
2017-06-28T19:18:20.882Z,28.50
2017-06-28T19:20:48.421Z,29.40
2017-06-28T19:23:15.912Z,30.70
2017-06-28T19:25:43.624Z,29.13
2017-06-28T19:28:11.108Z,30.67
2017-06-28T19:30:38.672Z,30.63
2017-06-28T19:33:06.754Z,29.40
2017-06-28T19:35:34.267Z,30.83
2017-06-28T19:38:02.683Z,30.90
2017-06-28T19:40:30.425Z,36.13
2017-06-28T19:42:57.952Z,37.53
2017-06-28T19:45:25.493Z,31.70
2017-06-28T19:47:53.041Z,32.83
2017-06-28T19:50:20.528Z,36.17
2017-06-28T19:52:48.016Z,39.80
2017-06-28T19:55:15.501Z,36.23
2017-06-28T19:57:43.025Z,33.37
2017-06-28T20:00:10.549Z,39.60
2017-06-28T20:02:38.057Z,44.40
2017-06-28T20:05:05.561Z,37.37
2017-06-28T20:07:33.326Z,47.40
2017-06-28T20:10:00.880Z,43.93
2017-06-28T20:12:28.468Z,37.60
2017-06-28T20:14:56.221Z,46.77
2017-06-28T20:17:23.765Z,49.03
2017-06-28T20:19:51.308Z,43.37
2017-06-28T20:22:19.052Z,34.03
2017-06-28T20:24:46.534Z,40.93
2017-06-28T20:27:14.041Z,40.70
2017-06-28T20:29:41.561Z,35.33
2017-06-28T20:32:09.817Z,43.83
2017-06-28T20:34:37.300Z,48.40
2017-06-28T20:37:04.831Z,46.87
2017-06-28T20:39:32.361Z,42.50
2017-06-28T20:42:00.801Z,41.03
2017-06-28T20:44:28.588Z,51.33
2017-06-28T20:46:56.073Z,38.33
2017-06-28T20:49:23.572Z,42.10
2017-06-28T20:51:51.139Z,41.13
2017-06-28T20:54:18.620Z,42.30
2017-06-28T20:56:46.203Z,49.07
2017-06-28T20:59:13.749Z,36.60
2017-06-28T21:01:41.244Z,40.80
2017-06-28T21:04:08.797Z,32.83
2017-06-28T21:06:36.293Z,42.10
2017-06-28T21:09:03.804Z,47.27
2017-06-28T21:11:31.363Z,50.90
2017-06-28T21:13:58.904Z,47.03
2017-06-28T21:16:26.387Z,41.63
2017-06-28T21:18:53.885Z,48.63
2017-06-28T21:21:21.430Z,46.40
2017-06-28T21:23:48.944Z,43.00
2017-06-28T21:26:16.430Z,48.67
2017-06-28T21:28:43.965Z,50.17
2017-06-28T21:31:11.501Z,47.80
2017-06-28T21:33:39.019Z,45.93
2017-06-28T21:36:07.285Z,56.10
2017-06-28T21:38:35.632Z,42.97
2017-06-28T21:41:03.175Z,48.90
2017-06-28T21:43:30.756Z,51.03
2017-06-28T21:45:58.299Z,47.00
2017-06-28T21:48:25.780Z,61.13
2017-06-28T21:50:53.384Z,64.77
2017-06-28T21:53:20.932Z,50.73
2017-06-28T21:55:48.473Z,49.00
2017-06-28T21:58:16.020Z,53.33
2017-06-28T22:00:43.558Z,50.40
2017-06-28T22:03:11.204Z,49.37
2017-06-28T22:05:38.961Z,50.83
2017-06-28T22:08:06.462Z,39.50
2017-06-28T22:10:33.963Z,51.43
2017-06-28T22:13:01.585Z,55.80
2017-06-28T22:15:29.131Z,44.87
2017-06-28T22:17:56.676Z,44.87
2017-06-28T22:20:36.084Z,49.47
2017-06-28T22:23:03.648Z,41.97
2017-06-28T22:25:31.181Z,44.50
2017-06-28T22:27:58.724Z,40.70
2017-06-28T22:30:26.208Z,50.50
2017-06-28T22:32:53.808Z,55.00
2017-06-28T22:35:21.352Z,46.93
2017-06-28T22:37:48.897Z,44.63
2017-06-28T22:40:16.436Z,39.50
2017-06-28T22:42:43.980Z,37.10
2017-06-28T22:45:11.748Z,37.83
2017-06-28T22:47:39.254Z,40.07
2017-06-28T22:50:07.532Z,55.17
2017-06-28T22:52:35.041Z,40.40
2017-06-28T22:55:02.745Z,52.03
2017-06-28T22:57:30.471Z,44.20
2017-06-28T22:59:58.019Z,48.80
2017-06-28T23:02:25.507Z,50.80
2017-06-28T23:04:53.208Z,43.30
2017-06-28T23:07:20.751Z,37.43
2017-06-28T23:09:48.292Z,54.20
2017-06-28T23:12:15.813Z,74.30
2017-06-28T23:14:44.092Z,61.10
2017-06-28T23:17:11.740Z,57.10
2017-06-28T23:19:39.368Z,55.70
2017-06-28T23:22:06.881Z,59.57
2017-06-28T23:24:34.397Z,50.00
2017-06-28T23:27:02.120Z,53.97
2017-06-28T23:29:29.664Z,45.83
2017-06-28T23:31:57.152Z,53.30
2017-06-28T23:34:24.653Z,52.53
2017-06-28T23:36:52.323Z,66.60
2017-06-28T23:39:19.813Z,45.93
2017-06-28T23:41:48.096Z,50.77
2017-06-28T23:44:15.640Z,52.33
2017-06-28T23:46:43.187Z,61.10
2017-06-28T23:49:10.732Z,71.47
2017-06-28T23:51:38.269Z,64.60
2017-06-28T23:54:05.780Z,61.00
2017-06-28T23:56:34.092Z,52.63
2017-06-28T23:59:01.584Z,49.70
